Have a Safe July 4th! 

Flight Track Log - Related Links

Times and Time Zones

All times are in EDT time to prevent confusion due to time zone crossing. See the N143DE flight status page for this flight to view local times or setup timezone preferences in your user account.

Time Position Orientation Groundspeed Altitude Reporting Facility
EDT Latitude Longitude Course Direction KTS MPH feet Rate Location/Type
Thu 08:25:40 AM 39.0167 -84.6833 180° South 166 191 3,500  Level Cincinnati TRACON
Thu 08:26:40 AM 38.9667 -84.6833 180° South 195 224 5,400 2,100 Climbing Cincinnati TRACON
Thu 08:27:40 AM 38.9167 -84.6667 165° South 189 217 7,700 2,045 Climbing Cincinnati TRACON
Thu 08:28:52 AM 38.8522 -84.6494 168° South 194 223 9,900 1,701 Climbing Indianapolis Center
Thu 08:29:54 AM 38.7983 -84.6581 187° South 194 223 11,500 1,306 Climbing Indianapolis Center
Thu 08:30:56 AM 38.7400 -84.6575 180° South 223 257 12,600 1,122 Climbing Indianapolis Center
Thu 08:31:57 AM 38.6783 -84.6292 160° South 236 272 13,800 1,024 Climbing Indianapolis Center
Thu 08:32:59 AM 38.6094 -84.5950 159° South 247 284 14,700 871 Climbing Indianapolis Center
Thu 08:34:01 AM 38.5422 -84.5633 160° South 254 292 15,600 823 Climbing Indianapolis Center
Thu 08:35:03 AM 38.4639 -84.5156 154° Southeast 265 305 16,400 629 Climbing Indianapolis Center
Thu 08:36:05 AM 38.3939 -84.4797 158° South 267 307 16,900 484 Climbing Indianapolis Center
Thu 08:37:07 AM 38.3147 -84.4889 185° South 276 318 17,400 484 Climbing Indianapolis Center
Thu 08:38:09 AM 38.2428 -84.4972 185° South 265 305 17,900 537 Climbing Indianapolis Center
Thu 08:39:10 AM 38.1669 -84.4914 177° South 274 315 18,500 488 Climbing Indianapolis Center
Thu 08:40:12 AM 38.0917 -84.4831 175° South 274 315 18,900 435 Climbing Indianapolis Center
Thu 08:41:14 AM 38.0039 -84.4753 176° South 272 313 19,400 390 Climbing Indianapolis Center
Thu 08:42:15 AM 37.9261 -84.4681 176° South 277 319 19,700 293 Climbing Indianapolis Center
Thu 08:43:17 AM 37.8511 -84.4439 166° South 277 319 20,000 145 Climbing Indianapolis Center
Thu 08:44:19 AM 37.7733 -84.4200 166° South 284 327 20,000  Level Indianapolis Center
Thu 08:45:21 AM 37.6942 -84.3950 166° South 291 335 20,000  Level Indianapolis Center
Thu 08:46:22 AM 37.6144 -84.3719 167° South 294 338 20,000  Level Indianapolis Center
Thu 08:47:24 AM 37.5214 -84.3447 167° South 293 337 20,000  Level Indianapolis Center
Thu 08:48:26 AM 37.4408 -84.3228 168° South 296 341 20,000  Level Indianapolis Center
Thu 08:49:28 AM 37.3614 -84.3011 168° South 292 336 20,000  Level Indianapolis Center
Thu 08:50:29 AM 37.2817 -84.2792 168° South 293 337 20,000  Level Indianapolis Center
Thu 08:51:31 AM 37.2017 -84.2564 167° South 294 338 20,000  Level Indianapolis Center
Thu 08:52:33 AM 37.1214 -84.2333 167° South 294 338 20,000  Level Indianapolis Center
Thu 08:53:35 AM 37.0286 -84.2069 167° South 293 337 20,000  Level Indianapolis Center
Thu 08:54:37 AM 36.9475 -84.1842 167° South 297 342 20,000  Level Indianapolis Center
Thu 08:55:39 AM 36.8683 -84.1628 168° South 291 335 20,000  Level Indianapolis Center
Thu 08:56:41 AM 36.7881 -84.1406 167° South 293 337 20,000  Level Indianapolis Center
Thu 08:57:42 AM 36.7094 -84.1181 167° South 291 335 20,000  Level Indianapolis Center
Thu 08:58:44 AM 36.6292 -84.0958 167° South 295 339 20,000  Level Indianapolis Center
Thu 08:59:46 AM 36.5364 -84.0689 167° South 291 335 20,000  Level Indianapolis Center
Thu 09:00:48 AM 36.4569 -84.0486 168° South 291 335 20,000  Level Indianapolis Center
Thu 09:01:50 AM 36.3764 -84.0269 168° South 295 339 20,000  Level Indianapolis Center
Thu 09:02:52 AM 36.2969 -84.0044 167° South 293 337 20,000  Level Indianapolis Center
Thu 09:03:54 AM 36.2178 -83.9822 167° South 291 335 20,000  Level Indianapolis Center
Thu 09:04:56 AM 36.1383 -83.9608 168° South 291 335 20,000  Level Indianapolis Center
Thu 09:05:57 AM 36.0569 -83.9386 168° South 295 339 20,000  Level Indianapolis Center
Thu 09:06:57 AM 35.9728 -83.9181 169° South 294 338 20,000  Level Atlanta Center
Thu 09:07:57 AM 35.8933 -83.8978 168° South 294 338 20,000  Level Atlanta Center
Thu 09:08:57 AM 35.8119 -83.8800 170° South 294 338 20,000  Level Atlanta Center
Thu 09:09:57 AM 35.7328 -83.8622 170° South 294 338 20,000  Level Atlanta Center
Thu 09:10:57 AM 35.6514 -83.8444 170° South 294 338 20,000  Level Atlanta Center
Thu 09:11:57 AM 35.5722 -83.8525 185° South 288 331 20,000  Level Atlanta Center
Thu 09:12:57 AM 35.4928 -83.8653 187° South 288 331 20,000  Level Atlanta Center
Thu 09:13:57 AM 35.4156 -83.8731 185° South 288 331 20,000  Level Atlanta Center
Thu 09:14:57 AM 35.3342 -83.8833 186° South 293 337 20,000  Level Atlanta Center
Thu 09:15:57 AM 35.2572 -83.8939 186° South 293 337 20,000  Level Atlanta Center
Thu 09:16:57 AM 35.1778 -83.9042 186° South 293 337 20,000 -100 Level Atlanta Center
Thu 09:17:57 AM 35.0986 -83.9119 185° South 293 337 19,800 -850 Descending Atlanta Center
Thu 09:18:57 AM 35.0108 -83.9222 185° South 298 343 18,300 -1,450 Descending Atlanta Center
Thu 09:19:57 AM 34.9211 -83.9350 187° South 316 364 16,900 -1,450 Descending Atlanta Center
Thu 09:20:57 AM 34.8336 -83.9453 186° South 316 364 15,400 -1,500 Descending Atlanta Center
Thu 09:21:57 AM 34.7500 -83.9553 186° South 316 364 13,900 -1,550 Descending Atlanta Center
Thu 09:22:57 AM 34.6686 -83.9631 184° South 310 357 12,300 -1,550 Descending Atlanta Center
Thu 09:23:57 AM 34.5831 -83.9706 184° South 310 357 10,800 -1,400 Descending Atlanta Center
Thu 09:24:57 AM 34.5017 -83.9833 187° South 305 351 9,500 -850 Descending Atlanta Center
Thu 09:25:57 AM 34.4244 -84.0111 197° South 283 326 9,100 -200 Descending Atlanta Center
Thu 09:26:57 AM 34.3661 -84.0489 208° Southwest 252 290 9,100  Level Atlanta Center
Thu 09:27:57 AM 34.3036 -84.0792 202° Southwest 240 276 9,100  Level Atlanta Center
Thu 09:28:57 AM 34.2408 -84.1142 205° Southwest 240 276 9,100 -250 Level Atlanta Center
Thu 09:29:57 AM 34.2011 -84.1769 233° Southwest 240 276 8,600 -950 Descending Atlanta Center
Thu 09:30:57 AM 34.1656 -84.2397 236° Southwest 235 270 7,200 -1,450 Descending Atlanta Center
Thu 09:31:57 AM 34.1508 -84.3022 254° West 216 249 5,700 -1,550 Descending Atlanta Center
Thu 09:32:57 AM 34.1467 -84.3700 266° West 204 235 4,100 -1,050 Descending Atlanta Center
Thu 09:33:57 AM 34.1089 -84.3975 211° Southwest 158 182 3,600 -500 Descending Atlanta Center
Thu 09:34:57 AM 34.0567 -84.3897 173° South 168 193 3,100 -199 Descending Atlanta Center
Thu 09:36:28 AM 34.0167 -84.4167 209° Southwest 130 150 3,100 -79 Level Atlanta TRACON
Thu 09:37:28 AM 34.0167 -84.4500 270° West 121 139 2,900 -333 Descending Atlanta TRACON
Thu 09:38:34 AM 34.0167 -84.5000 270° West 109 125 2,400 -476 Descending Atlanta TRACON
Thu 09:39:34 AM 34.0167 -84.5333 270° West 102 117 1,900 -526 Descending Atlanta TRACON
Thu 09:40:28 AM 34.0167 -84.5667 270° West 92 106 1,400 -556 Descending Atlanta TRACON
Thu 09:42:00 AM 34.0000 -84.5833 248° West  Level FlightAware Approximate

Login

Don't have an account? Register now (free) for customized features, flight alerts, and more!